createdAt,value
2022-11-22T00:01:22.813Z,8.74
2022-11-22T00:02:54.666Z,8.77
2022-11-22T00:04:26.298Z,8.78
2022-11-22T00:05:57.891Z,8.77
2022-11-22T00:07:29.841Z,8.74
2022-11-22T00:09:01.519Z,8.75
2022-11-22T00:10:33.520Z,8.74
2022-11-22T00:12:05.668Z,8.71
2022-11-22T00:13:37.315Z,8.70
2022-11-22T00:15:10.548Z,8.75
2022-11-22T00:16:43.540Z,8.77
2022-11-22T00:18:15.195Z,8.75
2022-11-22T00:19:46.923Z,8.73
2022-11-22T00:21:18.804Z,8.73
2022-11-22T00:22:50.542Z,8.72
2022-11-22T00:24:22.156Z,8.74
2022-11-22T00:25:53.805Z,8.74
2022-11-22T00:27:27.056Z,8.71
2022-11-22T00:28:58.820Z,8.71
2022-11-22T00:30:30.571Z,8.73
2022-11-22T00:32:03.765Z,8.71
2022-11-22T00:33:35.483Z,8.70
2022-11-22T00:35:07.912Z,8.71
2022-11-22T00:36:39.533Z,8.72
2022-11-22T00:38:11.146Z,8.72
2022-11-22T00:39:42.755Z,8.72
2022-11-22T00:41:14.463Z,8.71
2022-11-22T00:42:46.110Z,8.71
2022-11-22T00:44:17.780Z,8.73
2022-11-22T00:45:49.496Z,8.71
2022-11-22T00:47:22.640Z,8.70
2022-11-22T00:48:54.345Z,8.71
2022-11-22T00:50:26.188Z,8.70
2022-11-22T00:51:57.862Z,8.74
2022-11-22T00:53:29.750Z,8.72
2022-11-22T00:55:01.398Z,8.71
2022-11-22T00:56:33.313Z,8.71
2022-11-22T00:58:04.995Z,8.72
2022-11-22T00:59:36.648Z,8.72
2022-11-22T01:01:08.434Z,8.72
2022-11-22T01:02:41.493Z,8.72
2022-11-22T01:04:13.153Z,8.71
2022-11-22T01:05:44.796Z,8.72
2022-11-22T01:07:16.544Z,8.73
2022-11-22T01:08:48.382Z,8.72
2022-11-22T01:10:20.067Z,8.70
2022-11-22T01:11:52.237Z,8.73
2022-11-22T01:13:23.962Z,8.77
2022-11-22T01:14:55.749Z,8.78
2022-11-22T01:16:27.507Z,8.79
2022-11-22T01:18:00.544Z,8.76
2022-11-22T01:19:32.511Z,8.75
2022-11-22T01:21:05.908Z,8.76
2022-11-22T01:22:37.578Z,8.79
2022-11-22T01:24:09.471Z,8.80
2022-11-22T01:25:42.915Z,8.82
2022-11-22T01:27:14.726Z,8.84
2022-11-22T01:28:47.835Z,8.91
2022-11-22T01:30:19.715Z,8.90
2022-11-22T01:31:51.356Z,8.93
2022-11-22T01:33:24.444Z,8.93
2022-11-22T01:34:56.198Z,8.94
2022-11-22T01:36:27.915Z,8.95
2022-11-22T01:37:59.567Z,8.97
2022-11-22T01:39:31.703Z,8.96
2022-11-22T01:41:03.752Z,8.99
2022-11-22T01:42:49.074Z,9.00
2022-11-22T01:44:22.738Z,9.01
2022-11-22T01:45:55.524Z,9.01
2022-11-22T01:47:27.517Z,8.99
2022-11-22T01:49:04.587Z,8.98
2022-11-22T01:50:40.758Z,8.97
2022-11-22T01:52:16.055Z,8.94
2022-11-22T01:53:48.459Z,8.94
2022-11-22T01:55:20.401Z,8.91
2022-11-22T01:56:55.093Z,8.87
2022-11-22T01:58:30.315Z,8.82
2022-11-22T02:00:05.567Z,8.80
2022-11-22T02:01:37.782Z,8.75
2022-11-22T02:03:13.240Z,8.72
2022-11-22T02:04:47.688Z,8.70
2022-11-22T02:06:20.411Z,8.67
2022-11-22T02:07:56.836Z,8.67
2022-11-22T02:09:29.647Z,8.65
2022-11-22T02:11:03.407Z,8.64
2022-11-22T02:12:36.608Z,8.65
2022-11-22T02:14:09.732Z,8.63
2022-11-22T02:15:41.836Z,8.62
2022-11-22T02:17:13.455Z,8.63
2022-11-22T02:18:45.615Z,8.60
2022-11-22T02:20:19.276Z,8.57
2022-11-22T02:21:55.982Z,8.55
2022-11-22T02:23:38.306Z,8.51
2022-11-22T02:25:19.011Z,8.45
2022-11-22T02:26:52.074Z,8.44
2022-11-22T02:28:24.808Z,8.43
2022-11-22T02:29:56.443Z,8.37
2022-11-22T02:31:49.085Z,8.35
2022-11-22T02:33:20.749Z,8.35
2022-11-22T02:34:52.364Z,8.32
2022-11-22T02:36:24.058Z,8.30
2022-11-22T02:37:57.861Z,8.29
2022-11-22T02:39:31.961Z,8.28
2022-11-22T02:41:08.892Z,8.28
2022-11-22T02:42:45.552Z,8.29
2022-11-22T02:44:19.273Z,8.29
2022-11-22T02:45:50.926Z,8.31
2022-11-22T02:47:22.626Z,8.32
2022-11-22T02:48:54.241Z,8.36
2022-11-22T02:50:25.934Z,8.36
2022-11-22T02:51:57.566Z,8.33
2022-11-22T02:53:30.423Z,8.34
2022-11-22T02:55:02.302Z,8.34
2022-11-22T02:56:33.922Z,8.34
2022-11-22T02:58:06.966Z,8.33
2022-11-22T02:59:38.691Z,8.33
2022-11-22T03:01:11.146Z,8.32
2022-11-22T03:02:42.854Z,8.30
2022-11-22T03:04:24.598Z,8.30
2022-11-22T03:05:56.766Z,8.26
2022-11-22T03:07:28.496Z,8.20
2022-11-22T03:09:00.197Z,8.18
2022-11-22T03:10:31.836Z,8.14
2022-11-22T03:12:03.875Z,8.11
2022-11-22T03:13:36.880Z,8.10
2022-11-22T03:15:09.104Z,8.10
2022-11-22T03:16:40.992Z,8.09
2022-11-22T03:18:12.629Z,8.07
2022-11-22T03:19:44.287Z,8.05
2022-11-22T03:21:15.974Z,8.06
2022-11-22T03:22:47.621Z,8.06
2022-11-22T03:24:20.222Z,8.06
2022-11-22T03:25:51.942Z,8.06
2022-11-22T03:27:26.885Z,8.03
2022-11-22T03:29:00.491Z,7.99
2022-11-22T03:30:32.491Z,7.97
2022-11-22T03:32:04.456Z,7.98
2022-11-22T03:33:36.149Z,7.99
2022-11-22T03:35:08.699Z,7.98
2022-11-22T03:36:40.378Z,7.98
2022-11-22T03:38:11.965Z,7.98
2022-11-22T03:39:43.607Z,7.98
2022-11-22T03:41:15.302Z,7.97
2022-11-22T03:42:46.914Z,7.95
2022-11-22T03:44:20.118Z,7.95
2022-11-22T03:45:51.970Z,7.97
2022-11-22T03:47:23.645Z,7.99
2022-11-22T03:48:55.274Z,8.00
2022-11-22T03:50:27.065Z,8.01
2022-11-22T03:51:58.677Z,8.03
2022-11-22T03:53:30.298Z,8.04
2022-11-22T03:55:01.901Z,8.06
2022-11-22T03:56:33.578Z,8.07
2022-11-22T03:58:05.653Z,8.05
2022-11-22T03:59:38.694Z,8.02
2022-11-22T04:01:16.181Z,8.03
2022-11-22T04:02:48.334Z,8.02
2022-11-22T04:04:20.060Z,8.05
2022-11-22T04:05:51.754Z,8.05
2022-11-22T04:07:23.445Z,8.05
2022-11-22T04:08:55.202Z,8.07
2022-11-22T04:10:27.001Z,8.08
2022-11-22T04:11:58.634Z,8.09
2022-11-22T04:13:50.530Z,8.07
2022-11-22T04:15:23.561Z,8.06
2022-11-22T04:16:55.203Z,8.05
2022-11-22T04:18:26.919Z,8.02
2022-11-22T04:20:17.103Z,8.00
2022-11-22T04:21:48.583Z,7.95
2022-11-22T04:23:22.213Z,7.93
2022-11-22T04:25:12.331Z,7.93
2022-11-22T04:26:43.793Z,7.90
2022-11-22T04:28:18.091Z,7.90
2022-11-22T04:29:49.732Z,7.91
2022-11-22T04:31:41.517Z,7.93
2022-11-22T04:33:14.738Z,7.93
2022-11-22T04:34:46.449Z,7.92
2022-11-22T04:36:18.075Z,7.91
2022-11-22T04:37:50.936Z,7.89
2022-11-22T04:39:22.706Z,7.87
2022-11-22T04:40:54.477Z,7.85
2022-11-22T04:42:44.584Z,7.86
2022-11-22T04:44:34.682Z,7.83
2022-11-22T04:46:06.516Z,7.82
2022-11-22T04:47:58.213Z,7.81
2022-11-22T04:49:30.031Z,7.79
2022-11-22T04:51:20.501Z,7.77
2022-11-22T04:52:53.606Z,7.77
2022-11-22T04:54:25.453Z,7.76
2022-11-22T04:55:57.682Z,7.73
2022-11-22T04:57:29.411Z,7.73
2022-11-22T04:59:01.150Z,7.72
2022-11-22T05:00:32.987Z,7.70
2022-11-22T05:02:04.661Z,7.71
2022-11-22T05:03:37.723Z,7.72
2022-11-22T05:05:09.849Z,7.72
2022-11-22T05:06:41.483Z,7.67
2022-11-22T05:08:13.891Z,7.66
2022-11-22T05:09:45.532Z,7.68
2022-11-22T05:11:17.248Z,7.67
2022-11-22T05:12:48.871Z,7.65
2022-11-22T05:14:20.485Z,7.65
2022-11-22T05:15:52.357Z,7.67
2022-11-22T05:17:24.018Z,7.68
2022-11-22T05:19:00.037Z,7.69
2022-11-22T05:20:31.674Z,7.68
2022-11-22T05:22:03.325Z,7.66
2022-11-22T05:23:54.012Z,7.65
2022-11-22T05:25:25.965Z,7.65
2022-11-22T05:26:57.637Z,7.64
2022-11-22T05:28:29.921Z,7.64
2022-11-22T05:30:01.618Z,7.68
2022-11-22T05:31:34.514Z,7.69
2022-11-22T05:33:06.195Z,7.71
2022-11-22T05:34:39.141Z,7.74
2022-11-22T05:36:12.069Z,7.76
2022-11-22T05:37:43.649Z,7.77
2022-11-22T05:39:15.355Z,7.78
2022-11-22T05:40:47.055Z,7.78
2022-11-22T05:42:18.784Z,7.79
2022-11-22T05:43:50.598Z,7.82
2022-11-22T05:45:22.306Z,7.81
2022-11-22T05:46:54.018Z,7.79
2022-11-22T05:48:26.725Z,7.76
2022-11-22T05:49:59.729Z,7.72
2022-11-22T05:51:34.679Z,7.71
2022-11-22T05:53:06.844Z,7.71
2022-11-22T05:54:38.540Z,7.71
2022-11-22T05:56:11.759Z,7.69
2022-11-22T05:57:43.413Z,7.67
2022-11-22T05:59:15.057Z,7.63
2022-11-22T06:00:46.731Z,7.61
2022-11-22T06:02:18.861Z,7.58
2022-11-22T06:03:50.775Z,7.53
2022-11-22T06:05:23.741Z,7.49
2022-11-22T06:06:55.465Z,7.47
2022-11-22T06:08:29.274Z,7.46
2022-11-22T06:10:00.911Z,7.47
2022-11-22T06:11:32.610Z,7.43
2022-11-22T06:13:05.304Z,7.46
2022-11-22T06:14:42.908Z,7.47
2022-11-22T06:16:15.635Z,7.46
2022-11-22T06:17:47.512Z,7.46
2022-11-22T06:19:19.192Z,7.43
2022-11-22T06:20:52.168Z,7.46
2022-11-22T06:22:24.057Z,7.47
2022-11-22T06:23:56.268Z,7.47
2022-11-22T06:25:28.582Z,7.48
2022-11-22T06:27:00.709Z,7.48
2022-11-22T06:28:34.661Z,7.48
2022-11-22T06:30:07.765Z,7.48
2022-11-22T06:31:39.405Z,7.48
2022-11-22T06:33:11.059Z,7.52
2022-11-22T06:34:42.689Z,7.53
2022-11-22T06:36:17.840Z,7.54
2022-11-22T06:37:49.582Z,7.53
2022-11-22T06:39:21.346Z,7.52
2022-11-22T06:40:53.029Z,7.47
2022-11-22T06:42:24.952Z,7.44
2022-11-22T06:43:57.522Z,7.42
2022-11-22T06:45:29.130Z,7.41
2022-11-22T06:47:00.751Z,7.37
2022-11-22T06:48:34.524Z,7.37
2022-11-22T06:50:06.974Z,7.36
2022-11-22T06:51:39.958Z,7.37
2022-11-22T06:53:32.387Z,7.35
2022-11-22T06:55:07.977Z,7.34
2022-11-22T06:56:41.125Z,7.34
2022-11-22T06:58:12.817Z,7.37
2022-11-22T06:59:44.431Z,7.37
2022-11-22T07:01:18.219Z,7.34
2022-11-22T07:02:50.045Z,7.32
2022-11-22T07:04:21.865Z,7.29
2022-11-22T07:05:54.060Z,7.25
2022-11-22T07:07:27.126Z,7.23
2022-11-22T07:08:59.401Z,7.25
2022-11-22T07:10:31.154Z,7.20
2022-11-22T07:12:04.062Z,7.21
2022-11-22T07:13:36.357Z,7.21
2022-11-22T07:15:08.975Z,7.21
2022-11-22T07:16:40.734Z,7.20
2022-11-22T07:18:12.351Z,7.18
2022-11-22T07:19:44.036Z,7.16
2022-11-22T07:21:17.459Z,7.15
2022-11-22T07:22:50.509Z,7.15
2022-11-22T07:24:22.156Z,7.16
2022-11-22T07:25:53.839Z,7.15
2022-11-22T07:27:25.454Z,7.13
2022-11-22T07:28:57.099Z,7.12
2022-11-22T07:30:28.820Z,7.13
2022-11-22T07:32:00.508Z,7.14
2022-11-22T07:33:32.808Z,7.15
2022-11-22T07:35:05.240Z,7.13
2022-11-22T07:36:36.923Z,7.13
2022-11-22T07:38:09.893Z,7.10
2022-11-22T07:39:41.488Z,7.11
2022-11-22T07:41:13.481Z,7.13
2022-11-22T07:42:45.138Z,7.13
2022-11-22T07:44:16.794Z,7.17
2022-11-22T07:45:48.602Z,7.15
2022-11-22T07:47:23.107Z,7.20
2022-11-22T07:48:55.148Z,7.21
2022-11-22T07:50:26.992Z,7.22
2022-11-22T07:51:59.463Z,7.25
2022-11-22T07:53:32.907Z,7.26
2022-11-22T07:55:13.916Z,7.23
2022-11-22T07:56:45.968Z,7.22
2022-11-22T07:58:17.590Z,7.24
2022-11-22T07:59:49.271Z,7.24
2022-11-22T08:01:21.785Z,7.23
2022-11-22T08:02:53.699Z,7.22
2022-11-22T08:04:25.373Z,7.23
2022-11-22T08:05:59.417Z,7.26
2022-11-22T08:07:31.146Z,7.26
2022-11-22T08:09:04.175Z,7.27
2022-11-22T08:10:35.778Z,7.26
2022-11-22T08:12:07.456Z,7.27
2022-11-22T08:13:40.231Z,7.30
2022-11-22T08:15:14.011Z,7.35
2022-11-22T08:16:45.981Z,7.37
2022-11-22T08:18:17.704Z,7.39
2022-11-22T08:19:53.340Z,7.42
2022-11-22T08:21:24.993Z,7.43
2022-11-22T08:22:56.663Z,7.44
2022-11-22T08:24:29.731Z,7.47
2022-11-22T08:26:01.611Z,7.54
2022-11-22T08:27:33.279Z,7.57
2022-11-22T08:29:08.827Z,7.63
2022-11-22T08:30:44.357Z,7.71
2022-11-22T08:32:17.048Z,7.93
2022-11-22T08:33:48.795Z,8.22
2022-11-22T08:35:20.479Z,8.35
2022-11-22T08:36:52.088Z,8.34
2022-11-22T08:38:24.092Z,8.27
2022-11-22T08:39:57.350Z,8.21
2022-11-22T08:41:28.982Z,8.19
2022-11-22T08:43:00.596Z,8.17
2022-11-22T08:44:32.214Z,8.14
2022-11-22T08:46:04.233Z,8.11
2022-11-22T08:47:35.952Z,8.09
2022-11-22T08:49:07.653Z,8.07
2022-11-22T08:50:39.256Z,8.02
2022-11-22T08:52:11.070Z,7.98
2022-11-22T08:53:43.777Z,7.96
2022-11-22T08:55:16.998Z,7.93
2022-11-22T08:56:50.513Z,7.97
2022-11-22T08:58:22.678Z,7.97
2022-11-22T08:59:54.348Z,7.98
2022-11-22T09:01:26.042Z,7.98
2022-11-22T09:02:57.806Z,8.05
2022-11-22T09:04:29.404Z,8.14
2022-11-22T09:09:45.689Z,8.35
2022-11-22T09:11:20.458Z,8.40
2022-11-22T09:12:52.112Z,8.44
2022-11-22T09:14:23.985Z,8.46
2022-11-22T09:15:56.048Z,8.50
2022-11-22T09:17:27.663Z,8.54
2022-11-22T09:18:59.352Z,8.57
2022-11-22T09:20:31.114Z,8.61
2022-11-22T09:22:02.747Z,8.62
2022-11-22T09:23:35.380Z,8.65
2022-11-22T09:25:08.075Z,8.71
2022-11-22T09:26:41.228Z,8.76
2022-11-22T09:28:12.889Z,8.82
2022-11-22T09:29:44.659Z,8.87
2022-11-22T09:31:18.996Z,8.95
2022-11-22T09:32:50.607Z,9.01
2022-11-22T09:34:22.274Z,9.05
2022-11-22T09:35:59.768Z,9.02
2022-11-22T09:37:32.099Z,9.08
2022-11-22T09:39:04.061Z,9.11
2022-11-22T09:40:36.280Z,9.18
2022-11-22T09:42:36.847Z,9.28
2022-11-22T09:44:19.586Z,9.34
2022-11-22T09:46:06.928Z,9.33
2022-11-22T09:47:48.281Z,9.35
2022-11-22T09:49:42.697Z,9.35
2022-11-22T09:51:17.832Z,9.37
2022-11-22T09:52:54.034Z,9.37
2022-11-22T09:54:30.607Z,9.40
2022-11-22T09:56:07.710Z,9.49
2022-11-22T09:57:44.388Z,9.59
2022-11-22T09:59:21.291Z,9.58
2022-11-22T10:00:54.743Z,9.52
2022-11-22T10:02:43.562Z,9.47
2022-11-22T10:04:25.693Z,9.51
2022-11-22T10:06:01.186Z,9.53
2022-11-22T10:07:37.604Z,9.50
2022-11-22T10:09:27.449Z,9.45
2022-11-22T10:10:59.918Z,9.45
2022-11-22T10:12:38.650Z,9.49
2022-11-22T10:14:24.226Z,9.48
2022-11-22T10:16:03.032Z,9.45
2022-11-22T10:17:47.439Z,9.42
2022-11-22T10:19:24.229Z,9.41
2022-11-22T10:20:55.928Z,9.39
2022-11-22T10:22:30.289Z,9.36
2022-11-22T10:24:02.468Z,9.29
2022-11-22T10:25:39.893Z,9.29
2022-11-22T10:27:13.902Z,9.25
2022-11-22T10:28:56.459Z,9.18
2022-11-22T10:30:35.670Z,9.19
2022-11-22T10:32:17.152Z,9.23
2022-11-22T10:34:01.524Z,9.21
2022-11-22T10:35:49.767Z,9.22
2022-11-22T10:37:30.451Z,9.26
2022-11-22T10:39:19.430Z,9.27
2022-11-22T10:41:01.552Z,9.32
2022-11-22T10:42:51.029Z,9.41
2022-11-22T10:44:35.675Z,9.48
2022-11-22T10:46:20.941Z,9.54
2022-11-22T10:48:04.893Z,9.61
2022-11-22T10:49:56.242Z,9.65
2022-11-22T10:51:41.991Z,9.72
2022-11-22T10:53:22.623Z,9.75
2022-11-22T10:55:03.441Z,9.77
2022-11-22T10:56:43.165Z,9.80
2022-11-22T10:58:27.660Z,9.81
2022-11-22T11:00:16.391Z,9.83
2022-11-22T11:02:01.242Z,9.81
2022-11-22T11:03:35.054Z,9.81
2022-11-22T11:05:10.358Z,9.83
2022-11-22T11:09:36.072Z,9.96
2022-11-22T11:10:39.728Z,10.01
2022-11-22T11:12:15.888Z,10.02
2022-11-22T11:13:51.494Z,10.05
2022-11-22T11:15:28.501Z,10.04
2022-11-22T11:17:02.621Z,10.02
2022-11-22T11:18:41.548Z,9.98
2022-11-22T11:20:19.423Z,9.96
2022-11-22T11:21:58.008Z,9.95
2022-11-22T11:23:29.596Z,9.94
2022-11-22T11:25:33.120Z,9.94
2022-11-22T11:27:05.068Z,10.00
2022-11-22T11:28:36.718Z,10.07
2022-11-22T11:30:12.926Z,10.14
2022-11-22T11:31:46.296Z,10.15
2022-11-22T11:33:26.340Z,10.17
2022-11-22T11:34:59.948Z,10.23
2022-11-22T11:36:32.033Z,10.26
2022-11-22T11:38:03.728Z,10.30
2022-11-22T11:39:38.406Z,10.31
2022-11-22T11:41:22.021Z,10.32
2022-11-22T11:43:14.955Z,10.30
2022-11-22T11:44:46.638Z,10.33
2022-11-22T11:46:20.079Z,10.37
2022-11-22T11:47:51.871Z,10.36
2022-11-22T11:49:26.589Z,10.39
2022-11-22T11:51:36.183Z,10.49
2022-11-22T11:53:24.195Z,10.50
2022-11-22T11:54:58.907Z,10.49
2022-11-22T11:56:40.648Z,10.52
2022-11-22T11:58:19.986Z,10.49
2022-11-22T11:59:53.787Z,10.47
2022-11-22T12:01:26.271Z,10.47
2022-11-22T12:03:01.396Z,10.52
2022-11-22T12:04:37.028Z,10.58
2022-11-22T12:06:12.790Z,10.60
2022-11-22T12:07:45.923Z,10.58
2022-11-22T12:09:30.416Z,10.57
2022-11-22T12:11:08.752Z,10.63
2022-11-22T12:12:46.680Z,10.66
2022-11-22T12:14:42.686Z,10.71
2022-11-22T12:16:22.695Z,10.74
2022-11-22T12:18:00.294Z,10.73
2022-11-22T12:19:44.499Z,10.69
2022-11-22T12:21:22.547Z,10.65
2022-11-22T12:23:09.791Z,10.66
2022-11-22T12:25:09.179Z,10.71
2022-11-22T12:26:38.629Z,10.76
2022-11-22T12:28:18.202Z,10.79
2022-11-22T12:29:49.946Z,10.75
2022-11-22T12:31:29.703Z,10.75
2022-11-22T12:33:05.696Z,10.77
2022-11-22T12:34:48.425Z,10.73
2022-11-22T12:36:26.000Z,10.76
2022-11-22T12:38:08.802Z,10.77
2022-11-22T12:39:46.578Z,10.79
2022-11-22T12:41:23.483Z,10.82
2022-11-22T12:42:58.952Z,10.83
2022-11-22T12:44:38.664Z,10.81
2022-11-22T12:46:13.745Z,10.79
2022-11-22T12:47:47.586Z,10.82
2022-11-22T12:49:31.023Z,10.78
2022-11-22T12:51:12.765Z,10.74
2022-11-22T12:52:50.436Z,10.71
2022-11-22T12:54:30.113Z,10.71
2022-11-22T12:56:08.380Z,10.74
2022-11-22T12:57:45.797Z,10.73
2022-11-22T12:59:28.890Z,10.73
2022-11-22T13:01:10.141Z,10.76
2022-11-22T13:02:55.896Z,10.74
2022-11-22T13:04:38.846Z,10.72
2022-11-22T13:06:13.997Z,10.68
2022-11-22T13:07:56.459Z,10.69
2022-11-22T13:09:31.829Z,10.71
2022-11-22T13:11:12.086Z,10.75
2022-11-22T13:12:45.995Z,10.76
2022-11-22T13:14:22.630Z,10.77
2022-11-22T13:15:57.631Z,10.76
2022-11-22T13:17:33.673Z,10.75
2022-11-22T13:19:06.944Z,10.73
2022-11-22T13:20:44.986Z,10.75
2022-11-22T13:22:28.181Z,10.80
2022-11-22T13:24:19.862Z,10.80
2022-11-22T13:26:01.942Z,10.77
2022-11-22T13:27:36.111Z,10.76
2022-11-22T13:29:18.483Z,10.75
2022-11-22T13:31:20.683Z,10.69
2022-11-22T13:32:54.408Z,10.63
2022-11-22T13:34:26.500Z,10.55
2022-11-22T13:36:30.611Z,10.58
2022-11-22T13:38:06.552Z,10.58
2022-11-22T13:39:43.774Z,10.57
2022-11-22T13:41:24.308Z,10.58
2022-11-22T13:43:47.142Z,10.58
2022-11-22T13:45:23.168Z,10.60
2022-11-22T13:46:57.637Z,10.61
2022-11-22T13:49:06.571Z,10.63
2022-11-22T13:51:02.958Z,10.59
2022-11-22T13:52:52.980Z,10.60
2022-11-22T13:55:01.016Z,10.60
2022-11-22T13:56:58.412Z,10.62
2022-11-22T13:58:54.495Z,10.60
2022-11-22T14:00:40.298Z,10.63
2022-11-22T14:02:23.089Z,10.62
2022-11-22T14:04:14.734Z,10.60
2022-11-22T14:05:49.294Z,10.59
2022-11-22T14:07:28.944Z,10.62
2022-11-22T14:09:28.539Z,10.62
2022-11-22T14:11:24.594Z,10.63
2022-11-22T14:13:11.015Z,10.65
2022-11-22T14:14:54.249Z,10.65
2022-11-22T14:16:46.518Z,10.64
2022-11-22T14:18:40.806Z,10.63
2022-11-22T14:20:32.311Z,10.62
2022-11-22T14:22:20.377Z,10.61
2022-11-22T14:24:02.355Z,10.57
2022-11-22T14:25:50.942Z,10.56
2022-11-22T14:27:36.525Z,10.51
2022-11-22T14:29:37.014Z,10.50
2022-11-22T14:31:14.531Z,10.50
2022-11-22T14:32:53.904Z,10.47
2022-11-22T14:34:27.057Z,10.48
2022-11-22T14:36:15.630Z,10.44
2022-11-22T14:37:56.777Z,10.47
2022-11-22T14:39:54.750Z,10.43
2022-11-22T14:41:40.599Z,10.45
2022-11-22T14:43:33.833Z,10.45
2022-11-22T14:45:22.805Z,10.48
2022-11-22T14:46:58.273Z,10.52
2022-11-22T14:48:35.268Z,10.52
2022-11-22T14:50:14.208Z,10.51
2022-11-22T14:51:51.266Z,10.50
2022-11-22T14:53:34.788Z,10.49
2022-11-22T14:55:15.009Z,10.47
2022-11-22T14:56:47.143Z,10.46
2022-11-22T14:58:24.155Z,10.47
2022-11-22T15:00:17.856Z,10.46
2022-11-22T15:02:19.180Z,10.47
2022-11-22T15:09:13.537Z,10.42
2022-11-22T15:09:16.787Z,10.42
2022-11-22T15:09:28.065Z,10.41
2022-11-22T15:10:29.915Z,10.42
2022-11-22T15:12:14.799Z,10.38
2022-11-22T15:14:04.615Z,10.39
2022-11-22T15:58:12.804Z,10.05
2022-11-22T15:59:46.836Z,10.04
2022-11-22T16:01:19.617Z,10.05
2022-11-22T16:02:56.657Z,10.04
2022-11-22T16:04:30.460Z,10.04
2022-11-22T16:06:08.699Z,10.03
2022-11-22T16:07:47.333Z,10.00
2022-11-22T16:09:25.804Z,9.97
2022-11-22T16:10:57.510Z,9.98
2022-11-22T16:12:35.197Z,9.96
2022-11-22T16:14:40.191Z,9.90
2022-11-22T16:16:20.440Z,9.87
2022-11-22T16:18:01.002Z,9.87
2022-11-22T16:19:32.917Z,9.88
2022-11-22T16:21:07.083Z,9.92
2022-11-22T16:22:38.761Z,9.88
2022-11-22T16:24:17.416Z,9.85
2022-11-22T16:25:52.360Z,9.79
2022-11-22T16:27:24.068Z,9.75
2022-11-22T16:28:57.334Z,9.75
2022-11-22T16:30:30.045Z,9.74
2022-11-22T16:32:03.362Z,9.72
2022-11-22T16:33:36.357Z,9.68
2022-11-22T16:35:28.450Z,9.65
2022-11-22T16:37:01.235Z,9.61
2022-11-22T16:38:32.931Z,9.58
2022-11-22T16:40:06.076Z,9.57
2022-11-22T16:41:37.769Z,9.58
2022-11-22T16:43:15.564Z,9.56
2022-11-22T16:44:47.378Z,9.52
2022-11-22T16:46:19.537Z,9.50
2022-11-22T16:48:03.797Z,9.50
2022-11-22T16:49:45.395Z,9.47
2022-11-22T16:51:22.529Z,9.47
2022-11-22T16:53:02.424Z,9.41
2022-11-22T16:54:34.506Z,9.38
2022-11-22T16:56:07.092Z,9.39
2022-11-22T16:57:41.059Z,9.39
2022-11-22T16:59:13.557Z,9.39
2022-11-22T17:00:46.633Z,9.42
2022-11-22T17:02:18.453Z,9.43
2022-11-22T17:03:53.960Z,9.43
2022-11-22T17:05:27.003Z,9.44
2022-11-22T17:06:58.770Z,9.45
2022-11-22T17:08:30.533Z,9.45
2022-11-22T17:10:02.993Z,9.46
2022-11-22T17:11:34.795Z,9.43
2022-11-22T17:13:06.463Z,9.45
2022-11-22T17:14:38.064Z,9.46
2022-11-22T17:16:10.643Z,9.45
2022-11-22T17:17:42.250Z,9.44
2022-11-22T17:19:37.398Z,9.44
2022-11-22T17:21:16.230Z,9.42
2022-11-22T17:22:48.112Z,9.39
2022-11-22T17:24:21.218Z,9.35
2022-11-22T17:25:52.880Z,9.36
2022-11-22T17:27:24.662Z,9.34
2022-11-22T17:28:56.359Z,9.37
2022-11-22T17:30:28.023Z,9.39
2022-11-22T17:31:59.671Z,9.40
2022-11-22T17:33:31.340Z,9.39
2022-11-22T17:35:02.955Z,9.40
2022-11-22T17:36:36.783Z,9.43
2022-11-22T17:38:11.184Z,9.46
2022-11-22T17:39:42.865Z,9.50
2022-11-22T17:41:14.480Z,9.49
2022-11-22T17:42:46.129Z,9.50
2022-11-22T17:44:18.190Z,9.47
2022-11-22T17:45:49.889Z,9.47
2022-11-22T17:47:21.596Z,9.47
2022-11-22T17:48:54.084Z,9.48
2022-11-22T17:50:26.035Z,9.47
2022-11-22T17:51:59.058Z,9.48
2022-11-22T17:53:30.717Z,9.48
2022-11-22T17:55:05.706Z,9.48
2022-11-22T17:56:38.114Z,9.47
2022-11-22T17:58:09.833Z,9.47
2022-11-22T17:59:43.137Z,9.48
2022-11-22T18:01:16.320Z,9.45
2022-11-22T18:02:48.381Z,9.45
2022-11-22T18:04:20.104Z,9.45
2022-11-22T18:05:51.720Z,9.43
2022-11-22T18:07:28.336Z,9.41
2022-11-22T18:09:00.865Z,9.40
2022-11-22T18:10:32.586Z,9.42
2022-11-22T18:12:05.137Z,9.42
2022-11-22T18:13:38.284Z,9.42
2022-11-22T18:15:10.380Z,9.42
2022-11-22T18:16:42.042Z,9.40
2022-11-22T18:18:40.357Z,9.39
2022-11-22T18:20:07.230Z,9.37
2022-11-22T18:21:39.019Z,9.32
2022-11-22T18:23:12.082Z,9.34
2022-11-22T18:24:43.791Z,9.34
2022-11-22T18:28:07.376Z,9.35
2022-11-22T18:29:53.632Z,9.37
2022-11-22T18:31:29.822Z,9.36
2022-11-22T18:33:03.153Z,9.35
2022-11-22T18:34:34.797Z,9.38
2022-11-22T18:36:49.966Z,9.36
2022-11-22T18:38:06.509Z,9.36
2022-11-22T18:39:40.582Z,9.37
2022-11-22T18:41:12.362Z,9.38
2022-11-22T18:42:45.967Z,9.40
2022-11-22T18:44:18.059Z,9.42
2022-11-22T18:45:49.766Z,9.43
2022-11-22T18:47:21.398Z,9.43
2022-11-22T18:48:53.177Z,9.43
2022-11-22T18:50:25.393Z,9.46
2022-11-22T18:51:57.134Z,9.47
2022-11-22T18:53:29.142Z,9.48
2022-11-22T18:55:02.179Z,9.47
2022-11-22T18:56:37.829Z,9.48
2022-11-22T18:58:09.708Z,9.49
2022-11-22T18:59:41.467Z,9.48
2022-11-22T19:01:15.156Z,9.48
2022-11-22T19:02:47.427Z,9.49
2022-11-22T19:04:19.154Z,9.48
2022-11-22T19:05:50.829Z,9.49
2022-11-22T19:07:22.973Z,9.49
2022-11-22T19:08:55.288Z,9.48
2022-11-22T19:10:28.307Z,9.49
2022-11-22T19:12:00.033Z,9.49
2022-11-22T19:13:33.060Z,9.50
2022-11-22T19:15:06.304Z,9.54
2022-11-22T19:16:38.059Z,9.55
2022-11-22T19:18:09.932Z,9.54
2022-11-22T19:19:41.621Z,9.55
2022-11-22T19:21:14.768Z,9.57
2022-11-22T19:22:46.426Z,9.55
2022-11-22T19:24:18.089Z,9.57
2022-11-22T19:25:51.137Z,9.58
2022-11-22T19:27:24.179Z,9.59
2022-11-22T19:28:57.400Z,9.62
2022-11-22T19:30:29.265Z,9.63
2022-11-22T19:32:00.902Z,9.63
2022-11-22T19:33:32.663Z,9.64
2022-11-22T19:35:04.920Z,9.64
2022-11-22T19:36:37.595Z,9.63
2022-11-22T19:38:09.337Z,9.62
2022-11-22T19:39:41.037Z,9.63
2022-11-22T19:41:16.737Z,9.63
2022-11-22T19:42:48.721Z,9.63
2022-11-22T19:44:21.086Z,9.64
2022-11-22T19:45:52.773Z,9.64
2022-11-22T19:47:24.424Z,9.65
2022-11-22T19:48:57.578Z,9.67
2022-11-22T19:50:29.191Z,9.68
2022-11-22T19:52:00.806Z,9.69
2022-11-22T19:53:32.850Z,9.68
2022-11-22T19:55:05.142Z,9.71
2022-11-22T19:56:38.460Z,9.69
2022-11-22T19:58:10.574Z,9.68
2022-11-22T19:59:42.444Z,9.69
2022-11-22T20:01:15.511Z,9.68
2022-11-22T20:02:47.183Z,9.70
2022-11-22T20:04:18.848Z,9.73
2022-11-22T20:05:50.570Z,9.74
2022-11-22T20:07:22.260Z,9.74
2022-11-22T20:08:59.973Z,9.75
2022-11-22T20:10:32.639Z,9.76
2022-11-22T20:12:06.123Z,9.78
2022-11-22T20:13:39.386Z,9.79
2022-11-22T20:15:11.592Z,9.79
2022-11-22T20:16:43.695Z,9.81
2022-11-22T20:18:15.342Z,9.83
2022-11-22T20:19:47.085Z,9.83
2022-11-22T20:21:22.053Z,9.84
2022-11-22T20:22:54.399Z,9.84
2022-11-22T20:24:27.438Z,9.85
2022-11-22T20:26:01.320Z,9.83
2022-11-22T20:27:34.448Z,9.84
2022-11-22T20:29:08.051Z,9.82
2022-11-22T20:30:39.731Z,9.80
2022-11-22T20:32:12.015Z,9.81
2022-11-22T20:33:45.789Z,9.84
2022-11-22T20:35:17.442Z,9.84
2022-11-22T20:36:49.096Z,9.85
2022-11-22T20:38:20.807Z,9.86
2022-11-22T20:39:52.428Z,9.84
2022-11-22T20:41:25.880Z,9.85
2022-11-22T20:42:58.919Z,9.86
2022-11-22T20:44:33.836Z,9.86
2022-11-22T20:46:08.101Z,9.85
2022-11-22T20:47:39.736Z,9.87
2022-11-22T20:49:12.894Z,9.88
2022-11-22T20:50:49.936Z,9.89
2022-11-22T20:52:21.598Z,9.88
2022-11-22T20:53:54.235Z,9.88
2022-11-22T20:55:26.169Z,9.87
2022-11-22T20:56:57.783Z,9.86
2022-11-22T20:58:31.925Z,9.90
2022-11-22T21:00:04.167Z,9.90
2022-11-22T21:01:36.305Z,9.93
2022-11-22T21:03:08.246Z,9.93
2022-11-22T21:04:40.202Z,9.97
2022-11-22T21:06:12.939Z,9.97
2022-11-22T21:07:44.631Z,10.00
2022-11-22T21:09:16.326Z,10.01
2022-11-22T21:10:48.467Z,10.02
2022-11-22T21:12:20.156Z,10.01
2022-11-22T21:13:53.604Z,10.03
2022-11-22T21:15:25.309Z,10.05
2022-11-22T21:16:57.933Z,10.05
2022-11-22T21:18:30.472Z,10.05
2022-11-22T21:20:02.207Z,10.06
2022-11-22T21:21:35.675Z,10.06
2022-11-22T21:23:07.350Z,10.08
2022-11-22T21:24:39.049Z,10.10
2022-11-22T21:26:10.879Z,10.10
2022-11-22T21:27:42.520Z,10.09
2022-11-22T21:29:16.771Z,10.07
2022-11-22T21:30:52.928Z,10.09
2022-11-22T21:32:24.922Z,10.06
2022-11-22T21:33:56.594Z,10.06
2022-11-22T21:35:28.245Z,10.07
2022-11-22T21:36:59.885Z,10.07
2022-11-22T21:38:32.866Z,10.06
2022-11-22T21:40:06.891Z,10.07
2022-11-22T21:41:40.155Z,10.06
2022-11-22T21:43:12.151Z,10.06
2022-11-22T21:44:45.144Z,10.07
2022-11-22T21:46:18.270Z,10.05
2022-11-22T21:47:50.710Z,10.05
2022-11-22T21:49:22.365Z,10.03
2022-11-22T21:50:55.846Z,10.01
2022-11-22T21:52:27.515Z,10.01